Flight Track Log - Related Links

Times and Time Zones

All times are in EDT time to prevent confusion due to time zone crossing. See the N806UA flight status page for this flight to view local times or setup timezone preferences in your user account.

Time Position Orientation Groundspeed Altitude Reporting Facility
EDT Latitude Longitude Course Direction KTS MPH feet Rate Location/Type
Sun 01:08:15 PM 39.8364 -104.6599 73° East  Level FlightAware Approximate
Sun 01:09:24 PM 39.8667 -104.5333 108° East 228 262 7,800  Level Denver TRACON
Sun 01:10:18 PM 39.8500 -104.4667 155° Southeast 276 318 9,600 2,773 Climbing Denver TRACON
Sun 01:11:23 PM 39.7667 -104.4167 206° Southwest 295 339 13,300 2,606 Climbing Denver TRACON
Sun 01:13:13 PM 39.6339 -104.5017 206° Southwest 319 367 17,200 2,185 Climbing Denver Center
Sun 01:14:16 PM 39.5428 -104.5581 177° South 354 407 19,600 2,048 Climbing Denver Center
Sun 01:15:19 PM 39.4386 -104.5514 167° South 377 434 21,500 1,824 Climbing Denver Center
Sun 01:16:21 PM 39.3261 -104.5178 165° South 404 465 23,400 1,200 Climbing Denver Center
Sun 01:17:24 PM 39.1967 -104.4742 160° South 403 464 24,000 286 Climbing Denver Center
Sun 01:18:27 PM 39.1003 -104.4278 160° South 406 467 24,000 720 Level Denver Center
Sun 01:19:29 PM 38.9792 -104.3714 161° South 412 474 25,500 960 Climbing Denver Center
Sun 01:20:32 PM 38.8558 -104.3161 160° South 417 480 26,000 240 Climbing Denver Center
Sun 01:21:34 PM 38.7500 -104.2672 159° South 420 483 26,000 768 Level Denver Center
Sun 01:22:37 PM 38.6269 -104.2081 140° Southeast 422 486 27,600 1,381 Climbing Denver Center
Sun 01:23:40 PM 38.5350 -104.1086 141° Southeast 448 516 28,900 1,248 Climbing Denver Center
Sun 01:24:42 PM 38.4247 -103.9956 140° Southeast 454 522 30,200 1,248 Climbing Denver Center
Sun 01:25:45 PM 38.3289 -103.8939 141° Southeast 462 532 31,500 1,381 Climbing Denver Center
Sun 01:26:48 PM 38.2167 -103.7778 141° Southeast 464 534 33,100 1,344 Climbing Denver Center
Sun 01:27:50 PM 38.1208 -103.6792 141° Southeast 461 531 34,300 1,296 Climbing Denver Center
Sun 01:28:53 PM 38.0106 -103.5650 141° Southeast 457 526 35,800 1,238 Climbing Denver Center
Sun 01:29:56 PM 37.9161 -103.4678 141° Southeast 455 524 36,900 912 Climbing Denver Center
Sun 01:30:58 PM 37.8053 -103.3550 141° Southeast 454 522 37,700 672 Climbing Denver Center
Sun 01:32:01 PM 37.7103 -103.2575 141° Southeast 456 525 38,300 576 Climbing Denver Center
Sun 01:33:03 PM 37.5989 -103.1436 141° Southeast 458 527 38,900 336 Climbing Denver Center
Sun 01:34:06 PM 37.5019 -103.0461 134° Southeast 461 531 39,000 48 Climbing Denver Center
Sun 01:35:09 PM 37.4000 -102.9122 131° Southeast 475 547 39,000 -48 Level Denver Center
Sun 01:36:11 PM 37.3186 -102.7944 132° Southeast 467 537 38,900 -48 Descending Denver Center
Sun 01:37:14 PM 37.2228 -102.6600 132° Southeast 462 532 38,900 41 Level Denver Center
Sun 01:38:38 PM 37.1131 -102.5056 131° Southeast 465 535 39,000 41 Climbing Albuquerque Center
Sun 01:39:41 PM 37.0183 -102.3711 132° Southeast 465 535 39,000  Level Albuquerque Center
Sun 01:40:43 PM 36.9217 -102.2350 132° Southeast 468 539 39,000  Level Albuquerque Center
Sun 01:41:46 PM 36.8375 -102.1194 132° Southeast 469 540 39,000  Level Albuquerque Center
Sun 01:42:48 PM 36.7394 -101.9833 132° Southeast 473 544 39,000  Level Albuquerque Center
Sun 01:43:51 PM 36.6547 -101.8664 132° Southeast 474 545 39,000  Level Albuquerque Center
Sun 01:44:53 PM 36.5628 -101.7400 132° Southeast 473 544 39,000  Level Albuquerque Center
Sun 01:45:55 PM 36.4742 -101.6194 132° Southeast 472 543 39,000  Level Albuquerque Center
Sun 01:46:58 PM 36.3747 -101.4831 132° Southeast 471 542 39,000  Level Albuquerque Center
Sun 01:48:00 PM 36.2811 -101.3558 132° Southeast 468 539 39,000  Level Albuquerque Center
Sun 01:49:03 PM 36.2028 -101.2489 132° Southeast 467 537 39,000  Level Albuquerque Center
Sun 01:50:05 PM 36.1161 -101.1311 133° Southeast 464 534 39,000  Level Albuquerque Center
Sun 01:51:08 PM 36.0119 -100.9911 133° Southeast 462 532 39,000  Level Albuquerque Center
Sun 01:52:10 PM 35.9253 -100.8744 133° Southeast 461 531 39,000  Level Albuquerque Center
Sun 01:53:13 PM 35.8392 -100.7592 133° Southeast 459 528 39,000  Level Albuquerque Center
Sun 01:54:15 PM 35.7519 -100.6433 133° Southeast 460 529 39,000  Level Albuquerque Center
Sun 01:55:18 PM 35.6656 -100.5289 133° Southeast 458 527 39,000  Level Albuquerque Center
Sun 01:56:20 PM 35.5617 -100.3914 133° Southeast 458 527 39,000  Level Albuquerque Center
Sun 01:57:23 PM 35.4767 -100.2789 133° Southeast 455 524 39,000  Level Albuquerque Center
Sun 01:58:25 PM 35.3922 -100.1672 134° Southeast 451 519 39,000  Level Albuquerque Center
Sun 01:59:28 PM 35.3061 -100.0567 133° Southeast 449 517 39,000  Level Albuquerque Center
Sun 02:00:30 PM 35.2208 -99.9453 133° Southeast 448 516 39,000  Level Albuquerque Center
Sun 02:01:35 PM 35.1142 -99.8069 135° Southeast 449 517 39,000  Level Fort Worth Center
Sun 02:02:35 PM 35.0264 -99.7006 133° Southeast 449 517 39,000  Level Fort Worth Center
Sun 02:03:35 PM 34.9369 -99.5842 133° Southeast 454 522 39,000  Level Fort Worth Center
Sun 02:04:35 PM 34.8531 -99.4731 133° Southeast 454 522 39,000  Level Fort Worth Center
Sun 02:05:35 PM 34.7633 -99.3572 133° Southeast 454 522 39,000  Level Fort Worth Center
Sun 02:06:35 PM 34.6753 -99.2417 134° Southeast 460 529 39,000  Level Fort Worth Center
Sun 02:07:35 PM 34.5872 -99.1314 133° Southeast 460 529 39,000 -700 Level Fort Worth Center
Sun 02:08:35 PM 34.4989 -99.0161 134° Southeast 460 529 37,600 -1,450 Descending Fort Worth Center
Sun 02:09:35 PM 34.4106 -98.9061 134° Southeast 460 529 36,100 -1,600 Descending Fort Worth Center
Sun 02:10:35 PM 34.3200 -98.7939 134° Southeast 460 529 34,400 1,450 Descending Fort Worth Center
Sun 02:11:35 PM 34.2314 -98.6844 132° Southeast 460 529 39,000 -2,000 Climbing Fort Worth Center
Sun 02:12:35 PM 34.1450 -98.5703 137° Southeast 460 529 30,400 -5,400 Descending Fort Worth Center
Sun 02:13:35 PM 34.0542 -98.4664 134° Southeast 460 529 28,200 -2,350 Descending Fort Worth Center
Sun 02:14:35 PM 33.9653 -98.3550 134° Southeast 460 529 25,700 -2,400 Descending Fort Worth Center
Sun 02:15:35 PM 33.8806 -98.2492 135° Southeast 454 522 23,400 -2,350 Descending Fort Worth Center
Sun 02:16:35 PM 33.7956 -98.1458 134° Southeast 441 507 21,000 -2,250 Descending Fort Worth Center
Sun 02:17:35 PM 33.7167 -98.0478 134° Southeast 419 482 18,900 -2,000 Descending Fort Worth Center
Sun 02:18:35 PM 33.6400 -97.9525 134° Southeast 399 459 17,000 -1,800 Descending Fort Worth Center
Sun 02:19:35 PM 33.5694 -97.8647 135° Southeast 376 433 15,300 -2,000 Descending Fort Worth Center
Sun 02:20:35 PM 33.4986 -97.7797 136° Southeast 366 421 13,000 -2,000 Descending Fort Worth Center
Sun 02:21:35 PM 33.4342 -97.7047 134° Southeast 359 413 11,300 -1,350 Descending Fort Worth Center
Sun 02:22:35 PM 33.3675 -97.6225 134° Southeast 325 374 10,300 -1,400 Descending Fort Worth Center
Sun 02:23:35 PM 33.3092 -97.5500 133° Southeast 308 354 8,500 -1,600 Descending Fort Worth Center
Sun 02:24:35 PM 33.2614 -97.4881 135° Southeast 296 341 7,100 -1,550 Descending Fort Worth Center
Sun 02:25:35 PM 33.2008 -97.4158 133° Southeast 290 334 5,400 -1,100 Descending Fort Worth Center
Sun 02:26:35 PM 33.1506 -97.3514 135° Southeast 275 316 4,900 -750 Descending Fort Worth Center
Sun 02:27:35 PM 33.0983 -97.2894 134° Southeast 270 311 3,900 -950 Descending Fort Worth Center
Sun 02:28:35 PM 33.0525 -97.2325 141° Southeast 247 284 3,000 -450 Descending Fort Worth Center
Sun 02:29:35 PM 33.0086 -97.1906 141° Southeast 216 249 3,000  Level Fort Worth Center

Login

Don't have an account? Register now (free) for customized features, flight alerts, and more!